| time (UTC) | temp F | wind direction | speed MPH | gust MPH | rain 1hr in | rain 24hr in | rain mn in | humidity % | barometer mb |
| 20260906205744 | 98 | 307 | 6.0 | 13.0 | 0.00 | 0.01 | 0.01 | 34 | 870.8 |
| 20260906204255 | 100 | 230 | 6.0 | 17.0 | 0.00 | 0.01 | 0.01 | 33 | 870.7 |
| 20260906203253 | 100 | 229 | 4.0 | 11.0 | 0.00 | 0.01 | 0.01 | 32 | 871.0 |
| 20260906202249 | 99 | 277 | 7.0 | 16.0 | 0.00 | 0.01 | 0.01 | 33 | 870.9 |
| 20260906201247 | 100 | 233 | 7.0 | 13.0 | 0.00 | 0.01 | 0.01 | 33 | 870.9 |
| 20260906200248 | 100 | 232 | 6.0 | 12.0 | 0.00 | 0.01 | 0.01 | 32 | 870.9 |
| 20260906195247 | 98 | 224 | 5.0 | 12.0 | 0.00 | 0.01 | 0.01 | 32 | 870.8 |
| 20260906194247 | 99 | 283 | 3.0 | 11.0 | 0.00 | 0.01 | 0.01 | 33 | 870.8 |
| 20260906193247 | 99 | 300 | 5.0 | 17.0 | 0.00 | 0.01 | 0.01 | 33 | 870.9 |
| 20260906192248 | 98 | 262 | 5.0 | 13.0 | 0.00 | 0.01 | 0.01 | 33 | 870.7 |
| 20260906191249 | 99 | 206 | 6.0 | 14.0 | 0.00 | 0.01 | 0.01 | 32 | 870.8 |
| 20260906190244 | 99 | 258 | 7.0 | 14.0 | 0.00 | 0.01 | 0.01 | 34 | 870.8 |
| 20260906185245 | 99 | 199 | 3.0 | 9.0 | 0.00 | 0.01 | 0.01 | 33 | 870.9 |
| 20260906185201 | 97 | 231 | 5.0 | 12.0 | 0.00 | 0.01 | 0.01 | 34 | 870.7 |
| 20260906183246 | 96 | 227 | 9.0 | 14.0 | 0.00 | 0.01 | 0.01 | 36 | 870.5 |
| 20260906182246 | 98 | 230 | 5.0 | 10.0 | 0.00 | 0.01 | 0.01 | 35 | 870.6 |
| 20260906181246 | 99 | 284 | 4.0 | 11.0 | 0.00 | 0.01 | 0.01 | 34 | 870.9 |
| 20260906180243 | 97 | 222 | 6.0 | 18.0 | 0.00 | 0.01 | 0.01 | 34 | 870.7 |
| 20260906180207 | 96 | 332 | 5.0 | 12.0 | 0.00 | 0.01 | 0.01 | 36 | 870.6 |
| 20260906175648 | 96 | 237 | 7.0 | 15.0 | 0.00 | 0.01 | 0.01 | 36 | 870.6 |
| 20260906173244 | 97 | 223 | 8.0 | 17.0 | 0.00 | 0.01 | 0.01 | 35 | 870.7 |
| 20260906172248 | 96 | 291 | 4.0 | 13.0 | 0.00 | 0.01 | 0.01 | 35 | 870.7 |
| 20260906171240 | 95 | 260 | 8.0 | 17.0 | 0.00 | 0.01 | 0.01 | 37 | 870.5 |
| 20260906170246 | 95 | 272 | 8.0 | 14.0 | 0.00 | 0.01 | 0.01 | 36 | 870.5 |
| 20260906165240 | 95 | 249 | 8.0 | 16.0 | 0.00 | 0.01 | 0.01 | 37 | 870.5 |
| 20260906164646 | 95 | 96 | 6.0 | 14.0 | 0.00 | 0.01 | 0.01 | 37 | 870.5 |
| 20260906164319 | 95 | 206 | 7.0 | 15.0 | 0.00 | 0.01 | 0.01 | 37 | 870.5 |
| 20260906162744 | 94 | 242 | 6.0 | 11.0 | 0.00 | 0.01 | 0.01 | 37 | 870.5 |
| 20260906161248 | 94 | 225 | 7.0 | 12.0 | 0.00 | 0.01 | 0.01 | 38 | 870.3 |
| 20260906160239 | 94 | 260 | 6.0 | 12.0 | 0.00 | 0.01 | 0.01 | 39 | 870.3 |
| 20260906155242 | 93 | 221 | 7.0 | 12.0 | 0.00 | 0.01 | 0.01 | 39 | 870.3 |
| 20260906154245 | 93 | 229 | 6.0 | 10.0 | 0.00 | 0.01 | 0.01 | 40 | 870.3 |
| 20260906153241 | 93 | 262 | 4.0 | 8.0 | 0.00 | 0.01 | 0.01 | 40 | 870.3 |
| 20260906152241 | 92 | 229 | 4.0 | 9.0 | 0.00 | 0.01 | 0.01 | 41 | 870.2 |
| 20260906151239 | 91 | 274 | 4.0 | 10.0 | 0.00 | 0.01 | 0.01 | 43 | 870.1 |
| 20260906150242 | 91 | 88 | 0.0 | 3.0 | 0.00 | 0.01 | 0.01 | 45 | 870.1 |
| 20260906145241 | 90 | 130 | 1.0 | 3.0 | 0.00 | 0.01 | 0.01 | 46 | 870.0 |
| 20260906144242 | 88 | 273 | 1.0 | 3.0 | 0.00 | 0.01 | 0.01 | 49 | 869.8 |
| 20260906143240 | 88 | 219 | 1.0 | 4.0 | 0.00 | 0.01 | 0.01 | 48 | 869.8 |
| 20260906142242 | 87 | 303 | 0.0 | 2.0 | 0.00 | 0.01 | 0.01 | 49 | 869.8 |
| 20260906141236 | 86 | 0 | 0.0 | 1.0 | 0.00 | 0.01 | 0.01 | 49 | 869.7 |
| 20260906140237 | 85 | 0 | 0.0 | 3.0 | 0.00 | 0.01 | 0.01 | 52 | 869.6 |
| 20260906135237 | 85 | 0 | 0.0 | 2.0 | 0.00 | 0.01 | 0.01 | 51 | 869.6 |
| 20260906134238 | 83 | 224 | 0.0 | 2.0 | 0.00 | 0.01 | 0.01 | 53 | 869.5 |
| 20260906133234 | 80 | 0 | 0.0 | 3.0 | 0.00 | 0.01 | 0.01 | 56 | 869.2 |
| 20260906133206 | 78 | 268 | 1.0 | 2.0 | 0.00 | 0.01 | 0.01 | 59 | 869.1 |
| 20260906131236 | 76 | 0 | 0.0 | 1.0 | 0.00 | 0.01 | 0.01 | 62 | 868.9 |
| 20260906131213 | 73 | 0 | 0.0 | 2.0 | 0.00 | 0.01 | 0.01 | 67 | 868.7 |
| 20260906125236 | 72 | 247 | 0.0 | 2.0 | 0.00 | 0.01 | 0.01 | 68 | 868.5 |
| 20260906124222 | 72 | 233 | 0.0 | 2.0 | 0.00 | 0.01 | 0.01 | 68 | 868.5 |
| 20260906123206 | 72 | 199 | 0.0 | 2.0 | 0.00 | 0.01 | 0.01 | 68 | 868.5 |
| 20260906123131 | 73 | 0 | 0.0 | 1.0 | 0.00 | 0.01 | 0.01 | 68 | 868.5 |
| 20260906122232 | 73 | 0 | 0.0 | 1.0 | 0.00 | 0.01 | 0.01 | 68 | 868.5 |
| 20260906122041 | 73 | 0 | 0.0 | 1.0 | 0.00 | 0.01 | 0.01 | 67 | 868.5 |
| 20260906115156 | 73 | 241 | 0.0 | 2.0 | 0.00 | 0.01 | 0.01 | 67 | 868.5 |
| 20260906114152 | 74 | 305 | 1.0 | 2.0 | 0.01 | 0.01 | 0.01 | 66 | 868.6 |
| 20260906113229 | 74 | 0 | 0.0 | 2.0 | 0.01 | 0.01 | 0.01 | 65 | 868.6 |
| 20260906112154 | 75 | 0 | 1.0 | 3.0 | 0.01 | 0.01 | 0.01 | 63 | 868.7 |
| 20260906111639 | 75 | 315 | 2.0 | 2.0 | 0.01 | 0.01 | 0.01 | 64 | 868.7 |
| 20260906110151 | 76 | 338 | 2.0 | 4.0 | 0.00 | 0.00 | 0.00 | 63 | 868.7 |
| 20260906105139 | 76 | 294 | 2.0 | 3.0 | 0.00 | 0.00 | 0.00 | 61 | 868.8 |
| 20260906104138 | 74 | 285 | 2.0 | 3.0 | 0.00 | 0.00 | 0.00 | 64 | 868.7 |
| 20260906103138 | 74 | 327 | 2.0 | 3.0 | 0.00 | 0.00 | 0.00 | 65 | 868.6 |
| 20260906102138 | 75 | 333 | 2.0 | 3.0 | 0.00 | 0.00 | 0.00 | 63 | 868.7 |
| 20260906101139 | 75 | 0 | 1.0 | 2.0 | 0.00 | 0.00 | 0.00 | 64 | 868.7 |
| 20260906100139 | 75 | 0 | 0.0 | 2.0 | 0.00 | 0.00 | 0.00 | 64 | 868.7 |
| 20260906095124 | 75 | 47 | 1.0 | 2.0 | 0.00 | 0.00 | 0.00 | 64 | 868.7 |
| 20260906094125 | 76 | 65 | 1.0 | 2.0 | 0.00 | 0.00 | 0.00 | 63 | 868.8 |
| 20260906093124 | 76 | 0 | 1.0 | 2.0 | 0.00 | 0.00 | 0.00 | 62 | 868.8 |
| 20260906092125 | 77 | 0 | 0.0 | 2.0 | 0.00 | 0.00 | 0.00 | 60 | 868.9 |
| 20260906091130 | 78 | 0 | 0.0 | 2.0 | 0.00 | 0.00 | 0.00 | 59 | 868.9 |
| 20260906090125 | 78 | 0 | 0.0 | 2.0 | 0.00 | 0.00 | 0.00 | 58 | 869.0 |
| 20260906085125 | 79 | 0 | 2.0 | 3.0 | 0.00 | 0.00 | 0.00 | 57 | 869.0 |
| 20260906084113 | 78 | 285 | 2.0 | 6.0 | 0.00 | 0.00 | 0.00 | 58 | 869.0 |
| 20260906083111 | 78 | 300 | 2.0 | 3.0 | 0.00 | 0.00 | 0.00 | 60 | 868.9 |
| 20260906082111 | 78 | 332 | 0.0 | 2.0 | 0.00 | 0.00 | 0.00 | 58 | 869.0 |
| 20260906081110 | 78 | 0 | 0.0 | 1.0 | 0.00 | 0.00 | 0.00 | 58 | 869.0 |
| 20260906080111 | 78 | 283 | 1.0 | 2.0 | 0.00 | 0.00 | 0.00 | 59 | 868.9 |
| 20260906075554 | 78 | 0 | 0.0 | 0.0 | 0.00 | 0.00 | 0.00 | 59 | 868.9 |
| 20260906074111 | 78 | 239 | 0.0 | 1.0 | 0.00 | 0.00 | 0.00 | 59 | 868.9 |
| 20260906073055 | 78 | 0 | 1.0 | 2.0 | 0.00 | 0.00 | 0.00 | 58 | 868.9 |
| 20260906072055 | 80 | 0 | 0.0 | 4.0 | 0.00 | 0.00 | 0.00 | 55 | 869.1 |
| 20260906071549 | 80 | 232 | 1.0 | 5.0 | 0.00 | 0.00 | 0.00 | 56 | 869.1 |
| 20260906071448 | 80 | 0 | 2.0 | 5.0 | 0.00 | 0.00 | 0.00 | 55 | 869.1 |
| 20260906065542 | 78 | 198 | 1.0 | 4.0 | 0.00 | 0.00 | 0.00 | 58 | 869.0 |
| 20260906064056 | 78 | 0 | 0.0 | 0.0 | 0.00 | 0.00 | 0.00 | 58 | 868.9 |
| 20260906063055 | 78 | 0 | 0.0 | 2.0 | 0.00 | 0.00 | 0.00 | 58 | 869.0 |
| 20260906062056 | 79 | 0 | 0.0 | 2.0 | 0.00 | 0.00 | 0.00 | 57 | 869.0 |
| 20260906061056 | 80 | 67 | 0.0 | 2.0 | 0.00 | 0.00 | 0.00 | 55 | 869.0 |
| 20260906060047 | 80 | 197 | 1.0 | 2.0 | 0.00 | 0.00 | 0.00 | 54 | 869.1 |
| 20260906055046 | 82 | 104 | 1.0 | 3.0 | 0.00 | 0.00 | 0.00 | 53 | 869.2 |
| 20260906055001 | 83 | 229 | 3.0 | 7.0 | 0.00 | 0.00 | 0.00 | 49 | 869.4 |
| 20260906053045 | 84 | 197 | 5.0 | 9.0 | 0.00 | 0.00 | 0.00 | 48 | 869.5 |
| 20260906052047 | 82 | 211 | 6.0 | 10.0 | 0.00 | 0.00 | 0.00 | 48 | 869.4 |
| 20260906052009 | 82 | 223 | 2.0 | 4.0 | 0.00 | 0.00 | 0.00 | 52 | 869.2 |
| 20260906050523 | 82 | 71 | 1.0 | 5.0 | 0.00 | 0.00 | 0.00 | 51 | 869.3 |
| 20260906045046 | 83 | 0 | 0.0 | 2.0 | 0.00 | 0.00 | 0.00 | 50 | 869.3 |
| 20260906044029 | 83 | 95 | 2.0 | 7.0 | 0.00 | 0.00 | 0.00 | 49 | 869.4 |
| 20260906043015 | 82 | 193 | 2.0 | 4.0 | 0.00 | 0.00 | 0.00 | 50 | 869.3 |
| 20260906042015 | 83 | 238 | 1.0 | 3.0 | 0.00 | 0.00 | 0.00 | 50 | 869.3 |
| 20260906041014 | 83 | 0 | 1.0 | 5.0 | 0.00 | 0.00 | 0.00 | 49 | 869.3 |
| 20260906040015 | 83 | 0 | 3.0 | 6.0 | 0.00 | 0.00 | 0.00 | 48 | 869.4 |
| 20260906035015 | 83 | 230 | 2.0 | 5.0 | 0.00 | 0.00 | 0.00 | 49 | 869.3 |
| 20260906034015 | 83 | 257 | 1.0 | 3.0 | 0.00 | 0.00 | 0.00 | 49 | 869.3 |
| 20260906033944 | 84 | 0 | 0.0 | 2.0 | 0.00 | 0.00 | 0.00 | 48 | 869.4 |
| 20260906031959 | 84 | 228 | 0.0 | 2.0 | 0.00 | 0.00 | 0.00 | 47 | 869.4 |
| 20260906031440 | 85 | 0 | 1.0 | 4.0 | 0.00 | 0.00 | 0.00 | 46 | 869.5 |
| 20260906030000 | 86 | 216 | 2.0 | 6.0 | 0.00 | 0.00 | 0.00 | 45 | 869.6 |
| 20260906024959 | 87 | 163 | 2.0 | 6.0 | 0.00 | 0.00 | 0.00 | 44 | 869.6 |
| 20260906023959 | 88 | 210 | 1.0 | 4.0 | 0.00 | 0.00 | 0.00 | 43 | 869.7 |
| 20260906022947 | 88 | 220 | 2.0 | 8.0 | 0.00 | 0.00 | 0.00 | 42 | 869.8 |
| 20260906021947 | 89 | 204 | 6.0 | 8.0 | 0.00 | 0.00 | 0.00 | 41 | 869.8 |
| 20260906021447 | 89 | 214 | 6.0 | 8.0 | 0.00 | 0.00 | 0.00 | 41 | 869.8 |
| 20260906015946 | 89 | 216 | 6.0 | 8.0 | 0.00 | 0.00 | 0.00 | 40 | 869.9 |
| 20260906014945 | 90 | 215 | 6.0 | 9.0 | 0.00 | 0.00 | 0.00 | 40 | 869.9 |
| 20260906013947 | 90 | 216 | 6.0 | 8.0 | 0.00 | 0.00 | 0.00 | 40 | 869.9 |
| 20260906012943 | 91 | 209 | 6.0 | 9.0 | 0.00 | 0.00 | 0.00 | 39 | 870.0 |
| 20260906012421 | 91 | 221 | 5.0 | 7.0 | 0.00 | 0.00 | 0.00 | 38 | 870.0 |
| 20260906010946 | 91 | 205 | 5.0 | 7.0 | 0.00 | 0.00 | 0.00 | 38 | 870.0 |
| 20260906010436 | 92 | 219 | 5.0 | 8.0 | 0.00 | 0.00 | 0.00 | 36 | 870.1 |
| 20260906005906 | 94 | 211 | 4.0 | 7.0 | 0.00 | 0.00 | 0.00 | 35 | 870.2 |
| 20260906003945 | 95 | 217 | 5.0 | 9.0 | 0.00 | 0.00 | 0.00 | 34 | 870.3 |
| 20260906002947 | 96 | 224 | 7.0 | 11.0 | 0.00 | 0.00 | 0.00 | 33 | 870.3 |
| 20260906001947 | 96 | 215 | 5.0 | 11.0 | 0.00 | 0.00 | 0.00 | 32 | 870.5 |
| 20260906001904 | 97 | 241 | 4.0 | 11.0 | 0.00 | 0.00 | 0.00 | 32 | 870.6 |
| 20260905235943 | 97 | 220 | 5.0 | 11.0 | 0.00 | 0.00 | 0.00 | 32 | 870.6 |
| 20260905234939 | 97 | 240 | 7.0 | 14.0 | 0.00 | 0.00 | 0.00 | 32 | 870.6 |
| 20260905234419 | 98 | 215 | 5.0 | 12.0 | 0.00 | 0.00 | 0.00 | 32 | 870.6 |
| 20260905232937 | 98 | 338 | 3.0 | 9.0 | 0.00 | 0.00 | 0.00 | 31 | 870.7 |
| 20260905231948 | 98 | 325 | 4.0 | 13.0 | 0.00 | 0.00 | 0.00 | 31 | 870.7 |
| 20260905230948 | 98 | 228 | 4.0 | 9.0 | 0.00 | 0.00 | 0.00 | 31 | 870.7 |
| 20260905230847 | 98 | 288 | 5.0 | 12.0 | 0.00 | 0.00 | 0.00 | 31 | 870.7 |
| 20260905225444 | 99 | 219 | 4.0 | 13.0 | 0.00 | 0.00 | 0.00 | 30 | 870.8 |
| 20260905224350 | 99 | 293 | 6.0 | 16.0 | 0.00 | 0.00 | 0.00 | 31 | 870.7 |
| 20260905223944 | 99 | 285 | 5.0 | 13.0 | 0.00 | 0.00 | 0.00 | 31 | 870.8 |
| 20260905222912 | 100 | 218 | 8.0 | 14.0 | 0.00 | 0.00 | 0.00 | 31 | 870.8 |
| 20260905220944 | 100 | 231 | 4.0 | 12.0 | 0.00 | 0.00 | 0.00 | 30 | 871.0 |
| 20260905215934 | 100 | 305 | 4.0 | 11.0 | 0.00 | 0.00 | 0.00 | 30 | 870.9 |
| 20260905214946 | 100 | 242 | 5.0 | 13.0 | 0.00 | 0.00 | 0.00 | 31 | 870.9 |
| 20260905213945 | 101 | 250 | 4.0 | 10.0 | 0.00 | 0.00 | 0.00 | 30 | 871.0 |
| 20260905212945 | 99 | 264 | 4.0 | 15.0 | 0.00 | 0.00 | 0.00 | 31 | 870.9 |
| 20260905211947 | 99 | 223 | 9.0 | 17.0 | 0.00 | 0.00 | 0.00 | 32 | 870.8 |
| 20260905210945 | 99 | 27 | 7.0 | 13.0 | 0.00 | 0.00 | 0.00 | 32 | 870.8 |
| 20260905210341 | 100 | 162 | 3.0 | 8.0 | 0.00 | 0.00 | 0.00 | 32 | 871.0 |